createdAt,value
2018-12-20T00:00:18.918Z,100.00
2018-12-20T00:02:48.676Z,100.00
2018-12-20T00:05:18.772Z,98.93
2018-12-20T00:07:49.794Z,96.69
2018-12-20T00:10:20.469Z,90.43
2018-12-20T00:12:50.658Z,89.73
2018-12-20T00:15:23.047Z,92.75
2018-12-20T00:17:53.992Z,96.93
2018-12-20T00:20:24.516Z,100.00
2018-12-20T00:22:55.790Z,100.00
2018-12-20T00:25:29.443Z,100.00
2018-12-20T00:28:00.074Z,100.00
2018-12-20T00:30:32.807Z,100.00
2018-12-20T00:33:04.300Z,100.00
2018-12-20T00:35:34.204Z,97.77
2018-12-20T00:38:05.642Z,99.89
2018-12-20T00:40:35.681Z,100.00
2018-12-20T00:43:05.953Z,100.00
2018-12-20T00:45:35.756Z,97.04
2018-12-20T00:48:06.843Z,91.69
2018-12-20T00:50:37.009Z,94.98
2018-12-20T00:53:12.797Z,94.38
2018-12-20T00:55:45.269Z,100.00
2018-12-20T00:58:15.480Z,100.00
2018-12-20T01:00:47.174Z,100.00
2018-12-20T01:03:20.214Z,100.00
2018-12-20T01:05:50.585Z,100.00
2018-12-20T01:08:21.909Z,100.00
2018-12-20T01:10:52.435Z,100.00
2018-12-20T01:13:22.633Z,100.00
2018-12-20T01:15:53.610Z,100.00
2018-12-20T01:18:26.434Z,100.00
2018-12-20T01:20:56.234Z,93.36
2018-12-20T01:23:28.522Z,98.04
2018-12-20T01:26:05.132Z,100.00
2018-12-20T01:28:37.612Z,100.00
2018-12-20T01:31:08.183Z,100.00
2018-12-20T01:33:38.632Z,98.50
2018-12-20T01:36:10.446Z,100.00
2018-12-20T01:38:50.150Z,100.00
2018-12-20T01:41:28.645Z,100.00
2018-12-20T01:46:39.285Z,100.00
2018-12-20T01:49:13.270Z,100.00
2018-12-20T01:51:44.395Z,100.00
2018-12-20T01:54:16.904Z,93.31
2018-12-20T01:56:48.326Z,91.31
2018-12-20T01:59:20.819Z,89.29
2018-12-20T02:01:50.597Z,94.51
2018-12-20T02:04:21.403Z,88.17
2018-12-20T02:06:58.845Z,86.01
2018-12-20T02:09:28.906Z,97.82
2018-12-20T02:12:01.503Z,100.00
2018-12-20T02:14:32.463Z,100.00
2018-12-20T02:17:06.221Z,100.00
2018-12-20T02:19:48.287Z,100.00
2018-12-20T02:22:41.171Z,100.00
2018-12-20T02:25:12.754Z,100.00
2018-12-20T02:27:48.176Z,100.00
2018-12-20T02:30:21.707Z,100.00
2018-12-20T02:32:54.790Z,94.96
2018-12-20T02:35:26.393Z,91.47
2018-12-20T02:38:03.255Z,86.04
2018-12-20T02:40:38.063Z,80.81
2018-12-20T02:43:12.880Z,80.39
2018-12-20T02:45:46.556Z,80.86
2018-12-20T02:48:20.820Z,81.81
2018-12-20T02:50:55.294Z,84.73
2018-12-20T02:53:32.179Z,82.58
2018-12-20T02:56:08.879Z,79.27
2018-12-20T02:58:39.137Z,84.34
2018-12-20T03:01:09.932Z,91.38
2018-12-20T03:03:44.496Z,100.00
2018-12-20T03:06:17.021Z,100.00
2018-12-20T03:08:53.770Z,100.00
2018-12-20T03:11:25.561Z,100.00
2018-12-20T03:13:58.259Z,100.00
2018-12-20T03:16:35.770Z,100.00
2018-12-20T03:19:11.338Z,100.00
2018-12-20T03:21:42.548Z,100.00
2018-12-20T03:24:14.827Z,100.00
2018-12-20T03:26:45.037Z,100.00
2018-12-20T03:29:18.432Z,100.00
2018-12-20T03:31:49.715Z,100.00
2018-12-20T03:34:21.585Z,100.00
2018-12-20T03:36:56.972Z,100.00
2018-12-20T03:39:33.279Z,100.00
2018-12-20T03:42:07.606Z,100.00
2018-12-20T03:44:42.126Z,100.00
2018-12-20T03:47:15.947Z,100.00
2018-12-20T03:49:52.903Z,100.00
2018-12-20T03:52:26.668Z,100.00
2018-12-20T03:54:57.927Z,100.00
2018-12-20T03:57:30.283Z,100.00
2018-12-20T04:00:05.277Z,100.00
2018-12-20T04:05:22.702Z,100.00
2018-12-20T04:07:57.088Z,96.87
2018-12-20T04:10:27.751Z,96.89
2018-12-20T04:13:04.185Z,99.38
2018-12-20T04:15:37.868Z,96.40
2018-12-20T04:18:10.960Z,100.00
2018-12-20T04:20:42.423Z,100.00
2018-12-20T04:23:15.967Z,100.00
2018-12-20T04:25:48.007Z,100.00
2018-12-20T04:28:19.030Z,100.00
2018-12-20T04:30:57.526Z,100.00
2018-12-20T04:33:28.599Z,100.00
2018-12-20T04:35:59.974Z,100.00
2018-12-20T04:38:31.494Z,100.00
2018-12-20T04:41:02.327Z,100.00
2018-12-20T04:43:32.773Z,100.00
2018-12-20T04:46:06.787Z,100.00
2018-12-20T04:48:38.167Z,100.00
2018-12-20T04:51:09.350Z,100.00
2018-12-20T04:53:39.856Z,100.00
2018-12-20T04:56:12.332Z,100.00
2018-12-20T04:58:42.702Z,100.00
2018-12-20T05:01:15.425Z,100.00
2018-12-20T05:03:45.349Z,100.00
2018-12-20T05:06:16.154Z,100.00
2018-12-20T05:08:47.455Z,100.00
2018-12-20T05:11:18.908Z,100.00
2018-12-20T05:13:48.918Z,100.00
2018-12-20T05:16:19.064Z,100.00
2018-12-20T05:18:49.410Z,100.00
2018-12-20T05:21:21.252Z,100.00
2018-12-20T05:23:52.355Z,100.00
2018-12-20T05:26:23.016Z,100.00
2018-12-20T05:28:51.846Z,100.00
2018-12-20T05:31:24.836Z,100.00
2018-12-20T05:33:56.827Z,100.00
2018-12-20T05:36:30.140Z,100.00
2018-12-20T05:39:02.525Z,100.00
2018-12-20T05:41:33.829Z,100.00
2018-12-20T05:44:05.063Z,100.00
2018-12-20T05:46:35.186Z,100.00
2018-12-20T05:49:07.444Z,100.00
2018-12-20T05:51:40.102Z,100.00
2018-12-20T05:54:10.452Z,100.00
2018-12-20T05:56:40.292Z,100.00
2018-12-20T05:59:12.682Z,100.00
2018-12-20T06:01:47.914Z,100.00
2018-12-20T06:04:18.915Z,100.00
2018-12-20T06:06:48.820Z,100.00
2018-12-20T06:09:18.782Z,100.00
2018-12-20T06:11:48.377Z,100.00
2018-12-20T06:14:18.741Z,100.00
2018-12-20T06:16:49.519Z,100.00
2018-12-20T06:19:19.396Z,100.00
2018-12-20T06:21:51.571Z,100.00
2018-12-20T06:24:27.358Z,100.00
2018-12-20T06:26:58.004Z,100.00
2018-12-20T06:29:28.001Z,100.00
2018-12-20T06:31:59.498Z,100.00
2018-12-20T06:34:29.316Z,100.00
2018-12-20T06:36:59.903Z,100.00
2018-12-20T06:39:31.046Z,100.00
2018-12-20T06:42:01.226Z,100.00
2018-12-20T06:44:31.661Z,100.00
2018-12-20T06:47:02.930Z,100.00
2018-12-20T06:49:32.935Z,100.00
2018-12-20T06:52:03.320Z,100.00
2018-12-20T06:54:33.290Z,100.00
2018-12-20T06:57:04.118Z,100.00
2018-12-20T06:59:40.371Z,100.00
2018-12-20T07:02:11.145Z,100.00
2018-12-20T07:04:42.958Z,100.00
2018-12-20T07:07:18.032Z,96.30
2018-12-20T07:09:52.782Z,90.22
2018-12-20T07:12:28.590Z,84.40
2018-12-20T07:14:59.360Z,85.66
2018-12-20T07:30:48.031Z,95.90
2018-12-20T07:33:34.861Z,100.00
2018-12-20T07:40:04.949Z,93.04
2018-12-20T07:42:37.114Z,97.74
2018-12-20T07:45:08.983Z,92.97
2018-12-20T07:47:43.965Z,89.52
2018-12-20T07:50:16.473Z,82.98
2018-12-20T07:52:50.506Z,85.66
2018-12-20T07:55:22.597Z,83.16
2018-12-20T07:57:53.390Z,100.00
2018-12-20T08:00:23.519Z,100.00
2018-12-20T08:02:54.409Z,94.59
2018-12-20T08:05:24.411Z,95.82
2018-12-20T08:07:54.469Z,97.64
2018-12-20T08:10:25.134Z,89.89
2018-12-20T08:12:55.583Z,100.00
2018-12-20T08:15:26.780Z,100.00
2018-12-20T08:17:58.457Z,100.00
2018-12-20T08:20:27.980Z,100.00
2018-12-20T08:22:59.481Z,96.25
2018-12-20T08:25:31.945Z,100.00
2018-12-20T08:28:02.788Z,92.47
2018-12-20T08:30:32.466Z,93.19
2018-12-20T08:33:02.172Z,89.26
2018-12-20T08:35:39.246Z,86.87
2018-12-20T08:38:08.831Z,90.78
2018-12-20T08:40:40.389Z,88.10
2018-12-20T08:43:11.181Z,93.05
2018-12-20T08:45:46.952Z,95.45
2018-12-20T08:48:16.799Z,100.00
2018-12-20T08:50:49.231Z,100.00
2018-12-20T08:53:25.013Z,100.00
2018-12-20T08:55:57.279Z,100.00
2018-12-20T08:58:28.239Z,100.00
2018-12-20T09:00:58.625Z,100.00
2018-12-20T09:03:28.155Z,100.00
2018-12-20T09:05:58.396Z,98.97
2018-12-20T09:08:30.375Z,98.22
2018-12-20T09:11:00.454Z,100.00
2018-12-20T09:13:30.909Z,100.00
2018-12-20T09:16:01.301Z,100.00
2018-12-20T09:18:31.337Z,100.00
2018-12-20T09:21:03.266Z,100.00
2018-12-20T09:23:33.362Z,100.00
2018-12-20T09:26:02.976Z,100.00
2018-12-20T09:28:32.639Z,100.00
2018-12-20T09:31:02.200Z,100.00
2018-12-20T09:33:32.123Z,100.00
2018-12-20T09:36:07.197Z,100.00
2018-12-20T09:38:37.452Z,100.00
2018-12-20T09:41:06.880Z,100.00
2018-12-20T09:43:36.254Z,100.00
2018-12-20T09:46:05.688Z,100.00
2018-12-20T09:48:35.474Z,100.00
2018-12-20T09:51:05.682Z,100.00
2018-12-20T09:53:35.483Z,100.00
2018-12-20T09:56:04.820Z,100.00
2018-12-20T09:58:35.763Z,100.00
2018-12-20T10:01:05.749Z,100.00
2018-12-20T10:03:35.372Z,100.00
2018-12-20T10:06:05.989Z,100.00
2018-12-20T10:08:35.545Z,100.00
2018-12-20T10:11:08.501Z,100.00
2018-12-20T10:13:39.870Z,100.00
2018-12-20T10:16:10.037Z,100.00
2018-12-20T10:18:39.519Z,100.00
2018-12-20T10:21:08.694Z,100.00
2018-12-20T10:23:38.808Z,100.00
2018-12-20T10:26:08.942Z,100.00
2018-12-20T10:28:38.800Z,100.00
2018-12-20T10:31:08.717Z,100.00
2018-12-20T10:33:38.364Z,100.00
2018-12-20T10:36:07.563Z,100.00
2018-12-20T10:38:37.295Z,100.00
2018-12-20T10:41:06.863Z,100.00
2018-12-20T10:43:36.277Z,100.00
2018-12-20T10:46:05.922Z,100.00
2018-12-20T10:48:35.250Z,100.00
2018-12-20T10:51:04.623Z,100.00
2018-12-20T10:53:34.055Z,100.00
2018-12-20T10:56:03.211Z,100.00
2018-12-20T10:58:32.413Z,100.00
2018-12-20T11:01:06.511Z,100.00
2018-12-20T11:03:40.737Z,100.00
2018-12-20T11:06:14.961Z,100.00
2018-12-20T11:09:47.743Z,100.00
2018-12-20T11:12:21.252Z,100.00
2018-12-20T11:14:50.437Z,100.00
2018-12-20T11:17:19.800Z,100.00
2018-12-20T11:19:49.157Z,100.00
2018-12-20T11:22:18.641Z,100.00
2018-12-20T11:24:47.838Z,100.00
2018-12-20T11:27:16.982Z,100.00
2018-12-20T11:29:46.284Z,100.00
2018-12-20T11:32:15.585Z,100.00
2018-12-20T11:34:45.460Z,100.00
2018-12-20T11:37:15.048Z,100.00
2018-12-20T11:39:44.350Z,100.00
2018-12-20T11:42:13.983Z,100.00
2018-12-20T11:44:43.639Z,100.00
2018-12-20T11:47:18.095Z,100.00
2018-12-20T11:49:48.376Z,100.00
2018-12-20T11:52:17.817Z,100.00
2018-12-20T11:54:47.187Z,100.00
2018-12-20T11:57:16.234Z,100.00
2018-12-20T11:59:45.312Z,100.00
2018-12-20T12:02:14.362Z,100.00
2018-12-20T12:04:43.489Z,100.00
2018-12-20T12:07:12.560Z,100.00
2018-12-20T12:09:41.744Z,100.00
2018-12-20T12:12:11.111Z,100.00
2018-12-20T12:14:40.564Z,100.00
2018-12-20T12:17:09.893Z,100.00
2018-12-20T12:19:40.147Z,100.00
2018-12-20T12:22:10.106Z,100.00
2018-12-20T12:24:39.514Z,100.00
2018-12-20T12:27:09.186Z,100.00
2018-12-20T12:29:38.607Z,100.00
2018-12-20T12:32:07.874Z,100.00
2018-12-20T12:34:43.385Z,100.00
2018-12-20T12:37:13.930Z,100.00
2018-12-20T12:39:43.027Z,100.00
2018-12-20T12:42:12.154Z,100.00
2018-12-20T12:44:41.452Z,100.00
2018-12-20T12:47:10.725Z,100.00
2018-12-20T12:49:39.766Z,100.00
2018-12-20T12:52:09.153Z,100.00
2018-12-20T12:54:38.295Z,100.00
2018-12-20T12:57:07.414Z,100.00
2018-12-20T12:59:36.622Z,100.00
2018-12-20T13:02:05.736Z,100.00
2018-12-20T13:04:35.090Z,100.00
2018-12-20T13:07:04.279Z,100.00
2018-12-20T13:09:33.626Z,100.00
2018-12-20T13:12:03.135Z,100.00
2018-12-20T13:14:32.314Z,100.00
2018-12-20T13:17:01.480Z,100.00
2018-12-20T13:19:30.520Z,100.00
2018-12-20T13:21:59.685Z,100.00
2018-12-20T13:24:28.973Z,100.00
2018-12-20T13:26:58.114Z,100.00
2018-12-20T13:29:27.649Z,100.00
2018-12-20T13:31:56.959Z,100.00
2018-12-20T13:34:26.191Z,100.00
2018-12-20T13:36:55.660Z,100.00
2018-12-20T13:39:24.921Z,100.00
2018-12-20T13:41:54.188Z,100.00
2018-12-20T13:44:23.445Z,100.00
2018-12-20T13:46:52.633Z,100.00
2018-12-20T13:49:21.954Z,100.00
2018-12-20T13:51:51.085Z,100.00
2018-12-20T13:54:21.011Z,100.00
2018-12-20T13:56:50.177Z,100.00
2018-12-20T13:59:19.422Z,100.00
2018-12-20T14:01:48.780Z,100.00
2018-12-20T14:04:18.069Z,100.00
2018-12-20T14:06:47.265Z,100.00
2018-12-20T14:09:16.634Z,100.00
2018-12-20T14:11:47.670Z,100.00
2018-12-20T14:14:17.851Z,100.00
2018-12-20T14:16:48.482Z,100.00
2018-12-20T14:19:18.508Z,100.00
2018-12-20T14:21:48.132Z,100.00
2018-12-20T14:24:17.927Z,100.00
2018-12-20T14:26:48.071Z,100.00
2018-12-20T14:29:18.488Z,100.00
2018-12-20T14:31:48.890Z,100.00
2018-12-20T14:34:20.157Z,100.00
2018-12-20T14:36:50.047Z,100.00
2018-12-20T14:39:20.225Z,100.00
2018-12-20T14:41:54.434Z,100.00
2018-12-20T14:44:24.630Z,100.00
2018-12-20T14:46:55.440Z,100.00
2018-12-20T14:49:25.677Z,100.00
2018-12-20T14:51:55.148Z,100.00
2018-12-20T14:54:27.212Z,100.00
2018-12-20T14:56:54.765Z,100.00
2018-12-20T14:59:24.962Z,100.00
2018-12-20T15:01:56.634Z,100.00
2018-12-20T15:04:27.011Z,100.00
2018-12-20T15:06:56.668Z,100.00
2018-12-20T15:09:26.467Z,100.00
2018-12-20T15:11:56.283Z,100.00
2018-12-20T15:14:27.502Z,100.00
2018-12-20T15:16:57.896Z,100.00
2018-12-20T15:19:28.090Z,100.00
2018-12-20T15:21:58.812Z,100.00
2018-12-20T15:24:29.622Z,100.00
2018-12-20T15:27:00.304Z,100.00
2018-12-20T15:29:30.744Z,100.00
2018-12-20T15:32:02.502Z,100.00
2018-12-20T15:34:32.676Z,100.00
2018-12-20T15:37:03.195Z,100.00
2018-12-20T15:39:32.795Z,100.00
2018-12-20T15:42:02.883Z,100.00
2018-12-20T15:44:31.968Z,100.00
2018-12-20T15:47:01.683Z,100.00
2018-12-20T15:49:31.298Z,100.00
2018-12-20T15:52:00.596Z,100.00
2018-12-20T15:54:29.899Z,100.00
2018-12-20T15:57:00.186Z,100.00
2018-12-20T15:59:30.529Z,100.00
2018-12-20T16:02:00.156Z,100.00
2018-12-20T16:04:29.690Z,100.00
2018-12-20T16:06:58.993Z,100.00
2018-12-20T16:09:28.710Z,100.00
2018-12-20T16:11:58.655Z,100.00
2018-12-20T16:14:28.436Z,99.54
2018-12-20T16:16:58.241Z,94.47
2018-12-20T16:19:27.514Z,91.50
2018-12-20T16:21:56.612Z,99.28
2018-12-20T16:24:27.187Z,94.33
2018-12-20T16:26:57.246Z,94.46
2018-12-20T16:29:26.994Z,97.96
2018-12-20T16:31:56.519Z,99.22
2018-12-20T16:34:27.360Z,96.66
2018-12-20T16:36:56.788Z,94.17
2018-12-20T16:39:26.495Z,100.00
2018-12-20T16:41:56.013Z,96.94
2018-12-20T16:44:28.208Z,100.00
2018-12-20T16:46:58.107Z,100.00
2018-12-20T16:49:27.238Z,96.13
2018-12-20T16:51:56.745Z,100.00
2018-12-20T16:54:26.425Z,100.00
2018-12-20T16:56:56.787Z,100.00
2018-12-20T16:59:26.090Z,100.00
2018-12-20T17:01:55.478Z,100.00
2018-12-20T17:04:24.724Z,100.00
2018-12-20T17:06:54.024Z,100.00
2018-12-20T17:09:24.176Z,100.00
2018-12-20T17:11:53.434Z,100.00
2018-12-20T17:14:24.276Z,100.00
2018-12-20T17:16:53.989Z,96.63
2018-12-20T17:19:23.259Z,93.41
2018-12-20T17:21:52.991Z,88.86
2018-12-20T17:24:22.495Z,87.32
2018-12-20T17:26:52.485Z,92.03
2018-12-20T17:29:21.834Z,96.60
2018-12-20T17:31:51.930Z,100.00
2018-12-20T17:34:22.003Z,99.09
2018-12-20T17:36:52.318Z,97.62
2018-12-20T17:39:21.784Z,97.16
2018-12-20T17:41:51.642Z,94.51
2018-12-20T17:44:21.854Z,98.74
2018-12-20T17:46:53.665Z,100.00
2018-12-20T17:49:30.579Z,98.76
2018-12-20T17:51:59.529Z,98.43
2018-12-20T17:54:29.352Z,100.00
2018-12-20T17:56:59.045Z,97.08
2018-12-20T17:59:28.960Z,95.81
2018-12-20T18:01:58.955Z,100.00
2018-12-20T18:04:28.610Z,99.56
2018-12-20T18:07:00.022Z,100.00
2018-12-20T18:09:30.148Z,100.00
2018-12-20T18:12:04.872Z,100.00
2018-12-20T18:14:34.789Z,100.00
2018-12-20T18:17:04.105Z,100.00
2018-12-20T18:19:39.005Z,100.00
2018-12-20T18:22:06.552Z,98.88
2018-12-20T18:24:37.930Z,98.90
2018-12-20T18:27:13.435Z,95.03
2018-12-20T18:29:46.328Z,99.84
2018-12-20T18:32:17.382Z,100.00
2018-12-20T18:34:49.765Z,100.00
2018-12-20T18:37:21.416Z,100.00
2018-12-20T18:39:52.567Z,100.00
2018-12-20T18:42:23.666Z,100.00
2018-12-20T18:44:55.079Z,100.00
2018-12-20T18:47:29.469Z,100.00
2018-12-20T18:50:01.016Z,100.00
2018-12-20T18:52:31.947Z,100.00
2018-12-20T18:55:02.974Z,100.00
2018-12-20T18:57:36.196Z,100.00
2018-12-20T19:00:10.020Z,100.00
2018-12-20T19:02:41.355Z,100.00
2018-12-20T19:05:15.912Z,100.00
2018-12-20T19:07:46.616Z,100.00
2018-12-20T19:10:17.511Z,99.91
2018-12-20T19:12:48.480Z,96.59
2018-12-20T19:15:18.766Z,98.52
2018-12-20T19:17:48.926Z,100.00
2018-12-20T19:20:20.802Z,100.00
2018-12-20T19:22:52.130Z,99.88
2018-12-20T19:25:23.792Z,94.03
2018-12-20T19:27:55.346Z,95.40
2018-12-20T19:30:28.380Z,92.65
2018-12-20T19:32:59.967Z,94.65
2018-12-20T19:35:30.880Z,97.31
2018-12-20T19:38:02.966Z,96.30
2018-12-20T19:40:34.450Z,96.61
2018-12-20T19:43:04.846Z,96.20
2018-12-20T19:45:45.806Z,93.01
2018-12-20T19:48:07.894Z,100.00
2018-12-20T19:50:38.665Z,100.00
2018-12-20T19:53:09.259Z,96.21
2018-12-20T19:55:39.849Z,99.69
2018-12-20T19:58:15.246Z,96.76
2018-12-20T20:00:45.733Z,100.00
2018-12-20T20:03:17.398Z,100.00
2018-12-20T20:05:48.403Z,96.52
2018-12-20T20:08:19.056Z,100.00
2018-12-20T20:10:50.033Z,100.00
2018-12-20T20:13:20.320Z,100.00
2018-12-20T20:15:51.548Z,100.00
2018-12-20T20:18:23.474Z,100.00
2018-12-20T20:20:54.695Z,97.63
2018-12-20T20:23:26.426Z,94.47
2018-12-20T20:25:56.526Z,91.55
2018-12-20T20:28:27.028Z,90.35
2018-12-20T20:30:58.691Z,100.00
2018-12-20T20:33:28.946Z,100.00
2018-12-20T20:35:59.957Z,100.00
2018-12-20T20:38:33.158Z,100.00
2018-12-20T20:41:03.992Z,100.00
2018-12-20T20:43:33.578Z,100.00
2018-12-20T20:46:03.655Z,100.00
2018-12-20T20:48:33.787Z,100.00
2018-12-20T20:51:04.525Z,100.00
2018-12-20T20:53:35.097Z,98.66
2018-12-20T20:56:06.101Z,100.00
2018-12-20T20:58:39.025Z,100.00
2018-12-20T21:01:11.174Z,100.00
2018-12-20T21:03:42.838Z,100.00
2018-12-20T21:06:14.123Z,99.79
2018-12-20T21:08:44.950Z,100.00
2018-12-20T21:11:15.791Z,100.00
2018-12-20T21:13:47.769Z,100.00
2018-12-20T21:16:20.754Z,100.00
2018-12-20T21:18:51.690Z,100.00
2018-12-20T21:21:23.239Z,100.00
2018-12-20T21:23:54.696Z,100.00
2018-12-20T21:26:24.610Z,100.00
2018-12-20T21:28:54.667Z,100.00
2018-12-20T21:31:26.893Z,100.00
2018-12-20T21:33:57.656Z,100.00
2018-12-20T21:36:28.213Z,100.00
2018-12-20T21:38:58.711Z,100.00
2018-12-20T21:41:29.993Z,100.00
2018-12-20T21:44:01.177Z,100.00
2018-12-20T21:46:32.816Z,100.00
2018-12-20T21:49:03.355Z,100.00
2018-12-20T21:51:35.708Z,100.00
2018-12-20T21:54:06.219Z,100.00
2018-12-20T21:56:36.197Z,100.00
2018-12-20T21:59:06.401Z,100.00
2018-12-20T22:01:37.200Z,100.00
2018-12-20T22:04:07.925Z,100.00
2018-12-20T22:06:38.989Z,100.00
2018-12-20T22:09:09.495Z,100.00
2018-12-20T22:11:42.971Z,100.00
2018-12-20T22:14:12.939Z,100.00
2018-12-20T22:16:43.138Z,100.00
2018-12-20T22:19:12.748Z,100.00
2018-12-20T22:21:43.554Z,100.00
2018-12-20T22:24:14.101Z,100.00
2018-12-20T22:26:44.613Z,100.00
2018-12-20T22:29:15.398Z,100.00
2018-12-20T22:31:46.713Z,100.00
2018-12-20T22:34:17.002Z,100.00
2018-12-20T22:36:47.489Z,100.00
2018-12-20T22:39:17.657Z,100.00
2018-12-20T22:41:48.044Z,100.00
2018-12-20T22:44:21.454Z,100.00
2018-12-20T22:46:51.223Z,100.00
2018-12-20T22:49:21.179Z,100.00
2018-12-20T22:51:51.239Z,100.00
2018-12-20T22:54:21.733Z,100.00
2018-12-20T22:56:51.890Z,100.00
2018-12-20T22:59:22.749Z,100.00
2018-12-20T23:01:53.010Z,100.00
2018-12-20T23:04:23.495Z,100.00
2018-12-20T23:06:53.499Z,100.00
2018-12-20T23:09:23.382Z,100.00
2018-12-20T23:11:53.307Z,100.00
2018-12-20T23:14:24.566Z,100.00
2018-12-20T23:16:54.635Z,100.00
2018-12-20T23:19:24.754Z,100.00
2018-12-20T23:22:00.218Z,100.00
2018-12-20T23:24:35.532Z,100.00
2018-12-20T23:27:05.884Z,100.00
2018-12-20T23:29:36.011Z,100.00
2018-12-20T23:32:05.859Z,100.00
2018-12-20T23:34:35.915Z,100.00
2018-12-20T23:37:06.026Z,100.00
2018-12-20T23:39:37.853Z,100.00
2018-12-20T23:42:07.792Z,100.00
2018-12-20T23:44:38.476Z,100.00
2018-12-20T23:47:09.044Z,100.00
2018-12-20T23:49:39.433Z,100.00
2018-12-20T23:52:10.874Z,100.00
2018-12-20T23:54:40.639Z,100.00
2018-12-20T23:57:12.449Z,100.00
2018-12-20T23:59:42.492Z,100.00
